Time;durP1;ratioP1;P1;durP2;ratioP2;P2;SDS_P1;SDS_P2;PMS_P1;PMS_P2;Temp;Humidity;BMP_temperature;BMP_pressure;BME280_temperature;BME280_humidity;BME280_pressure;Samples;Min_cycle;Max_cycle;Signal;HPM_P1;HPM_P2
2022/09/25 00:01:09;;;;;;;21.48;4.97;;;;;;;12.02;100.00;101185.03;5060824;28;20032;-80
2022/09/25 00:03:40;;;;;;;18.67;4.78;;;;;;;12.00;100.00;101177.91;5048751;28;20040;-80
2022/09/25 00:06:12;;;;;;;30.02;6.93;;;;;;;12.02;100.00;101184.13;5072526;28;20044;-81
2022/09/25 00:08:48;;;;;;;22.02;5.38;;;;;;;11.97;100.00;101176.28;5054793;28;20047;-80
2022/09/25 00:11:22;;;;;;;22.88;5.40;;;;;;;12.02;100.00;101179.53;5039974;28;20082;-79
2022/09/25 00:13:50;;;;;;;20.05;5.15;;;;;;;11.91;100.00;101188.63;5069908;28;20142;-79
2022/09/25 00:16:25;;;;;;;22.17;5.57;;;;;;;11.91;100.00;101187.72;5040686;28;20037;-79
2022/09/25 00:21:51;;;;;;;12.27;4.28;;;;;;;11.88;100.00;101183.34;5058439;28;20466;-79
2022/09/25 00:24:21;;;;;;;21.75;3.92;;;;;;;11.84;100.00;101184.59;5028886;28;20407;-79
2022/09/25 00:27:00;;;;;;;19.30;3.92;;;;;;;11.82;100.00;101186.56;5057137;28;20024;-79
2022/09/25 00:29:41;;;;;;;21.08;3.67;;;;;;;11.74;100.00;101183.53;5049423;28;20033;-79
2022/09/25 00:32:10;;;;;;;21.17;3.67;;;;;;;11.72;100.00;101177.31;5058918;28;20035;-79
2022/09/25 00:34:38;;;;;;;13.60;3.72;;;;;;;11.67;100.00;101172.19;5062651;28;20033;-79
2022/09/25 00:37:07;;;;;;;18.33;3.95;;;;;;;11.71;100.00;101192.03;5023855;28;20036;-79
2022/09/25 00:39:33;;;;;;;14.30;3.40;;;;;;;11.64;100.00;101177.94;5069590;28;20399;-80
2022/09/25 00:42:03;;;;;;;12.75;3.90;;;;;;;11.63;100.00;101178.91;5045442;28;20040;-79
2022/09/25 00:44:58;;;;;;;20.65;4.13;;;;;;;11.69;100.00;101185.78;5041033;28;20040;-79
2022/09/25 00:47:43;;;;;;;19.00;4.13;;;;;;;11.69;100.00;101183.94;5070815;28;20107;-80
2022/09/25 00:50:27;;;;;;;11.80;3.78;;;;;;;11.70;100.00;101184.78;5059180;28;20028;-79
2022/09/25 00:53:10;;;;;;;19.08;5.30;;;;;;;11.69;100.00;101188.53;5059686;28;20104;-79
2022/09/25 00:55:47;;;;;;;16.30;3.38;;;;;;;11.64;100.00;101174.31;5024697;28;20442;-80
2022/09/25 00:58:24;;;;;;;17.88;3.00;;;;;;;11.67;100.00;101185.91;5057939;28;20419;-80
2022/09/25 01:01:00;;;;;;;29.20;5.13;;;;;;;11.63;100.00;101181.66;5068191;28;20446;-80
2022/09/25 01:03:45;;;;;;;15.98;3.50;;;;;;;11.65;100.00;101184.28;5037987;28;20039;-80
2022/09/25 01:06:13;;;;;;;20.95;3.92;;;;;;;11.59;100.00;101189.25;5036236;28;20037;-80
2022/09/25 01:08:56;;;;;;;11.90;3.15;;;;;;;11.56;100.00;101194.13;5047616;28;20082;-80
2022/09/25 01:11:25;;;;;;;14.30;3.35;;;;;;;11.51;100.00;101194.47;5048458;28;20483;-80
2022/09/25 01:13:56;;;;;;;21.77;3.90;;;;;;;11.48;100.00;101189.22;5067322;28;20035;-79
2022/09/25 01:17:00;;;;;;;20.23;4.32;;;;;;;11.40;100.00;101191.69;5066782;28;20115;-80
2022/09/25 01:19:54;;;;;;;18.75;4.30;;;;;;;11.37;100.00;101195.53;5062615;28;20028;-80
2022/09/25 01:23:01;;;;;;;17.40;4.10;;;;;;;11.33;100.00;101194.03;5046767;28;20036;-80
2022/09/25 01:25:55;;;;;;;21.90;4.40;;;;;;;11.31;100.00;101192.38;5050103;28;20029;-80
2022/09/25 01:29:05;;;;;;;20.58;4.43;;;;;;;11.38;100.00;101197.28;5078219;28;20043;-80
2022/09/25 01:32:23;;;;;;;24.35;4.22;;;;;;;11.33;100.00;101198.63;5043831;28;20549;-80
2022/09/25 01:35:12;;;;;;;19.13;4.45;;;;;;;11.35;100.00;101186.56;5063017;28;20036;-80
2022/09/25 01:38:01;;;;;;;21.10;3.70;;;;;;;11.31;100.00;101187.75;5061325;28;20025;-80
2022/09/25 01:40:42;;;;;;;15.38;4.03;;;;;;;11.35;100.00;101185.69;5048150;28;20403;-80
2022/09/25 01:43:49;;;;;;;32.35;4.53;;;;;;;11.35;100.00;101191.16;5052417;28;20121;-80
2022/09/25 01:46:21;;;;;;;14.75;3.80;;;;;;;11.26;100.00;101187.25;5072325;28;20129;-80
2022/09/25 01:48:57;;;;;;;14.77;4.05;;;;;;;11.29;100.00;101195.25;5047908;28;20031;-80
2022/09/25 01:51:27;;;;;;;34.10;6.15;;;;;;;11.31;100.00;101198.72;5061528;28;20051;-80
2022/09/25 01:54:04;;;;;;;22.98;4.82;;;;;;;11.34;100.00;101208.59;5053179;28;20033;-80
2022/09/25 01:56:41;;;;;;;37.58;5.40;;;;;;;11.22;100.00;101210.41;5041219;28;20435;-80
2022/09/25 01:59:21;;;;;;;18.02;4.03;;;;;;;11.16;100.00;101208.13;5063022;28;20029;-80
2022/09/25 02:01:51;;;;;;;16.38;3.53;;;;;;;11.20;100.00;101213.28;5067342;28;20498;-80
2022/09/25 02:04:21;;;;;;;25.35;5.05;;;;;;;11.17;100.00;101205.28;5061532;28;20525;-80
2022/09/25 02:06:49;;;;;;;36.55;4.63;;;;;;;11.18;100.00;101201.56;5054088;28;20100;-80
2022/09/25 02:09:38;;;;;;;36.25;4.88;;;;;;;11.16;100.00;101203.53;5053580;28;20533;-80
2022/09/25 02:12:30;;;;;;;30.75;5.25;;;;;;;11.12;100.00;101210.25;5058013;28;20028;-80
2022/09/25 02:15:12;;;;;;;16.70;4.20;;;;;;;11.13;100.00;101209.22;5065480;28;20396;-80
2022/09/25 02:20:40;;;;;;;17.87;3.77;;;;;;;11.04;100.00;101219.03;5078938;28;20032;-79
2022/09/25 02:23:23;;;;;;;20.90;4.55;;;;;;;11.03;100.00;101219.16;5059476;28;20056;-79
2022/09/25 02:26:08;;;;;;;17.08;4.57;;;;;;;11.04;100.00;101213.56;5053540;28;20028;-79
2022/09/25 02:28:38;;;;;;;17.55;3.83;;;;;;;11.09;100.00;101224.19;5075666;28;20078;-80
2022/09/25 02:31:09;;;;;;;24.45;5.18;;;;;;;10.95;100.00;101221.59;5061312;28;20035;-80
2022/09/25 02:33:37;;;;;;;24.17;4.30;;;;;;;10.97;100.00;101220.50;5061728;28;20024;-80
2022/09/25 02:36:18;;;;;;;31.85;4.35;;;;;;;10.85;100.00;101214.09;5060030;28;20105;-80
2022/09/25 02:39:04;;;;;;;22.42;5.28;;;;;;;10.87;100.00;101219.44;5059513;28;20037;-80
2022/09/25 02:42:34;;;;;;;16.02;4.03;;;;;;;10.91;100.00;101218.22;5074613;28;20170;-79
2022/09/25 02:45:14;;;;;;;22.30;4.78;;;;;;;10.84;100.00;101215.06;5065771;28;20039;-80
2022/09/25 02:48:09;;;;;;;22.75;4.53;;;;;;;10.79;100.00;101211.78;5059121;28;20426;-79
2022/09/25 02:50:55;;;;;;;17.27;5.05;;;;;;;10.76;100.00;101208.41;5033327;28;20447;-79
2022/09/25 02:53:40;;;;;;;26.83;4.45;;;;;;;10.79;100.00;101206.31;5077476;28;20056;-80
2022/09/25 02:56:18;;;;;;;;;;;;;;;10.80;100.00;101213.53;5061185;28;20078;-80
2022/09/25 02:58:58;;;;;;;20.05;4.63;;;;;;;10.78;100.00;101210.03;5058274;28;19912;-80
2022/09/25 03:01:30;;;;;;;17.25;4.50;;;;;;;10.80;100.00;101210.78;5044254;28;20043;-79
2022/09/25 03:03:59;;;;;;;21.58;4.70;;;;;;;10.84;100.00;101212.31;5035752;28;20029;-80
2022/09/25 03:06:29;;;;;;;23.73;5.07;;;;;;;10.84;100.00;101208.72;5074304;28;20052;-80
2022/09/25 03:09:01;;;;;;;23.05;4.22;;;;;;;10.80;100.00;101207.19;5055865;28;20032;-80
2022/09/25 03:11:42;;;;;;;15.23;4.70;;;;;;;10.78;100.00;101199.06;5046859;28;20037;-80
2022/09/25 03:14:09;;;;;;;25.50;4.72;;;;;;;10.81;100.00;101208.94;5060317;28;20044;-80
2022/09/25 03:16:56;;;;;;;27.35;5.13;;;;;;;10.78;100.00;101201.81;5072818;28;20977;-79
2022/09/25 03:19:33;;;;;;;19.10;5.20;;;;;;;10.68;100.00;101194.41;5064473;28;20039;-80
2022/09/25 03:22:01;;;;;;;15.85;3.75;;;;;;;10.66;100.00;101202.75;5044944;28;20040;-80
2022/09/25 03:24:31;;;;;;;19.83;4.72;;;;;;;10.61;100.00;101204.94;5070422;28;20463;-80
2022/09/25 03:26:56;;;;;;;16.58;4.70;;;;;;;10.62;100.00;101193.84;5076823;28;20040;-80
2022/09/25 03:29:32;;;;;;;24.08;4.50;;;;;;;10.59;100.00;101201.44;5058915;28;20104;-79
2022/09/25 03:31:59;;;;;;;26.60;4.70;;;;;;;10.56;100.00;101197.06;5061396;28;20096;-80
2022/09/25 03:34:27;;;;;;;23.40;5.03;;;;;;;10.56;100.00;101197.06;5032120;28;20468;-79
2022/09/25 03:37:01;;;;;;;19.48;4.63;;;;;;;10.56;100.00;101193.44;5038885;28;20577;-79
2022/09/25 03:39:28;;;;;;;23.27;4.40;;;;;;;10.51;100.00;101190.16;5071666;28;20078;-79
2022/09/25 03:41:57;;;;;;;24.42;4.72;;;;;;;10.50;100.00;101193.91;5077933;28;20048;-81
2022/09/25 03:44:23;;;;;;;25.98;5.43;;;;;;;10.51;100.00;101199.28;5083616;28;20089;-80
2022/09/25 03:46:55;;;;;;;25.42;5.13;;;;;;;10.47;100.00;101201.34;5041035;28;20059;-79
2022/09/25 03:49:24;;;;;;;30.63;5.60;;;;;;;10.51;100.00;101196.53;5030625;28;20042;-80
2022/09/25 03:51:49;;;;;;;24.67;6.55;;;;;;;10.40;100.00;101191.84;5042803;28;20028;-79
2022/09/25 03:54:24;;;;;;;23.60;6.00;;;;;;;10.44;100.00;101201.56;5020618;28;20037;-79
2022/09/25 03:56:59;;;;;;;23.10;5.65;;;;;;;10.39;100.00;101205.63;5046886;28;20031;-79
2022/09/25 03:59:27;;;;;;;18.48;5.55;;;;;;;10.35;100.00;101213.19;5058193;28;20074;-80
2022/09/25 04:01:53;;;;;;;21.77;5.97;;;;;;;10.39;100.00;101201.03;5043294;28;20036;-79
2022/09/25 04:04:32;;;;;;;22.13;6.10;;;;;;;10.35;100.00;101196.78;5034697;28;20480;-79
2022/09/25 04:07:07;;;;;;;18.92;6.00;;;;;;;10.27;100.00;101201.91;5042635;28;20037;-80
2022/09/25 04:09:44;;;;;;;21.55;6.22;;;;;;;10.26;100.00;101200.13;5060723;28;20041;-80
2022/09/25 04:12:29;;;;;;;25.17;6.15;;;;;;;10.35;100.00;101206.84;5054623;28;20033;-80
2022/09/25 04:15:08;;;;;;;22.27;6.72;;;;;;;10.27;100.00;101196.41;5055296;28;20083;-80
2022/09/25 04:17:35;;;;;;;19.92;6.95;;;;;;;10.29;100.00;101191.69;5058738;28;20032;-80
2022/09/25 04:20:15;;;;;;;21.38;6.55;;;;;;;10.25;100.00;101195.66;5067877;28;20186;-80
2022/09/25 04:22:55;;;;;;;27.77;8.07;;;;;;;10.16;100.00;101188.13;5061522;28;20024;-80
2022/09/25 04:25:24;;;;;;;32.67;6.97;;;;;;;10.18;100.00;101188.88;5051305;28;20077;-80
2022/09/25 04:28:03;;;;;;;32.95;8.45;;;;;;;10.22;100.00;101198.63;5071203;28;20038;-80
2022/09/25 04:30:48;;;;;;;28.58;7.05;;;;;;;10.15;100.00;101200.03;5075572;28;20036;-80
2022/09/25 04:33:46;;;;;;;25.02;6.43;;;;;;;10.05;100.00;101188.88;5076556;28;20499;-80
2022/09/25 04:36:20;;;;;;;27.33;7.45;;;;;;;10.04;100.00;101204.41;5033271;28;20058;-81
2022/09/25 04:38:47;;;;;;;33.15;8.10;;;;;;;10.03;100.00;101199.91;5025337;28;20119;-80
2022/09/25 04:41:25;;;;;;;30.05;8.30;;;;;;;9.98;100.00;101199.38;5046224;28;20068;-80
2022/09/25 04:43:51;;;;;;;31.13;8.13;;;;;;;10.02;100.00;101200.03;5039136;28;20044;-80
2022/09/25 04:46:20;;;;;;;26.85;8.45;;;;;;;9.93;100.00;101205.16;5022519;28;20091;-80
2022/09/25 04:48:55;;;;;;;24.60;8.25;;;;;;;9.92;100.00;101208.03;5040517;28;20427;-80
2022/09/25 04:51:22;;;;;;;36.30;7.72;;;;;;;9.92;100.00;101208.03;5024456;28;20021;-81
2022/09/25 04:53:58;;;;;;;21.40;8.07;;;;;;;9.88;100.00;101206.50;5044540;28;20025;-80
2022/09/25 04:56:31;;;;;;;32.17;8.40;;;;;;;9.92;100.00;101208.91;5062247;28;20040;-79
2022/09/25 04:58:58;;;;;;;34.83;9.25;;;;;;;9.77;100.00;101196.28;5039604;28;20045;-80
2022/09/25 05:01:40;;;;;;;25.05;8.07;;;;;;;9.77;100.00;101209.09;5052666;28;20040;-80
2022/09/25 05:04:15;;;;;;;;;;;;;;;9.70;100.00;101201.31;5024757;28;20067;-80
2022/09/25 05:06:41;;;;;;;33.78;7.88;;;;;;;9.68;100.00;101203.28;5090444;28;20378;-80
2022/09/25 05:09:14;;;;;;;28.52;8.30;;;;;;;9.70;100.00;101203.19;5066978;28;20111;-80
2022/09/25 05:11:45;;;;;;;22.70;8.18;;;;;;;9.61;100.00;101201.09;5053366;28;20032;-80
2022/09/25 05:14:12;;;;;;;27.98;8.25;;;;;;;9.57;100.00;101189.50;5042526;28;20029;-79
2022/09/25 05:16:46;;;;;;;24.10;8.73;;;;;;;9.56;100.00;101199.56;5063975;28;20028;-79
2022/09/25 05:19:12;;;;;;;30.23;8.55;;;;;;;9.56;100.00;101198.69;5026381;28;20490;-79
2022/09/25 05:21:45;;;;;;;33.20;8.57;;;;;;;9.45;100.00;101195.84;5056344;28;20400;-78
2022/09/25 05:24:16;;;;;;;23.55;8.32;;;;;;;9.49;100.00;101192.75;5026090;28;20543;-79
2022/09/25 05:26:44;;;;;;;30.80;8.73;;;;;;;9.42;100.00;101185.97;5058712;28;20045;-79
2022/09/25 05:29:22;;;;;;;33.85;8.45;;;;;;;9.52;100.00;101189.81;5053909;28;20464;-80
2022/09/25 05:32:00;;;;;;;28.25;7.93;;;;;;;9.36;100.00;101184.56;5069875;28;20033;-79
2022/09/25 05:34:33;;;;;;;30.15;8.35;;;;;;;9.30;100.00;101193.16;5058401;28;20402;-79
2022/09/25 05:37:02;;;;;;;31.73;8.80;;;;;;;9.34;100.00;101191.97;5061766;28;20043;-79
2022/09/25 05:39:39;;;;;;;28.55;9.25;;;;;;;9.27;100.00;101184.31;5043443;28;20060;-80
2022/09/25 05:42:08;;;;;;;28.75;8.18;;;;;;;9.32;100.00;101196.66;5075502;28;20507;-80
2022/09/25 05:44:47;;;;;;;30.13;8.90;;;;;;;9.30;100.00;101193.16;5052663;28;20514;-79
2022/09/25 05:47:18;;;;;;;16.23;8.55;;;;;;;9.29;100.00;101190.53;5059941;28;20033;-79
2022/09/25 05:49:52;;;;;;;29.60;9.70;;;;;;;9.31;100.00;101189.47;5069750;28;20437;-78
2022/09/25 05:52:19;;;;;;;26.75;8.68;;;;;;;9.23;100.00;101197.31;5038726;28;20100;-79
2022/09/25 05:54:49;;;;;;;20.70;8.63;;;;;;;9.27;100.00;101197.97;5065504;28;20099;-80
2022/09/25 05:57:16;;;;;;;27.05;9.77;;;;;;;9.22;100.00;101184.63;5039258;28;20466;-80
2022/09/25 05:59:48;;;;;;;31.17;9.98;;;;;;;9.23;100.00;101194.56;5031792;28;20041;-81
2022/09/25 06:02:20;;;;;;;23.63;9.03;;;;;;;9.22;100.00;101198.28;5072714;28;20029;-80
2022/09/25 06:05:01;;;;;;;28.83;9.23;;;;;;;9.22;100.00;101195.53;5055627;28;20459;-80
2022/09/25 06:07:26;;;;;;;28.55;10.25;;;;;;;9.27;100.00;101203.44;5047865;28;20044;-82
2022/09/25 06:10:09;;;;;;;32.40;9.98;;;;;;;9.19;100.00;101209.41;5048485;28;20040;-81
2022/09/25 06:12:40;;;;;;;36.53;9.70;;;;;;;9.25;100.00;101206.28;5053945;28;20080;-81
2022/09/25 06:15:15;;;;;;;25.33;10.75;;;;;;;9.24;100.00;101206.38;5047137;28;20043;-82
2022/09/25 06:17:42;;;;;;;31.63;10.13;;;;;;;9.29;100.00;101202.34;5032065;28;20028;-82
2022/09/25 06:20:16;;;;;;;36.10;11.55;;;;;;;9.25;100.00;101206.28;5031181;28;20040;-81
2022/09/25 06:22:53;;;;;;;33.05;10.02;;;;;;;9.34;100.00;101211.09;5061758;28;20025;-81
2022/09/25 06:25:35;;;;;;;36.03;10.07;;;;;;;9.42;100.00;101218.78;5057895;28;20037;-81
2022/09/25 06:28:17;;;;;;;27.75;9.82;;;;;;;9.50;100.00;101207.31;5043390;28;20379;-81
2022/09/25 06:30:49;;;;;;;27.48;10.35;;;;;;;9.47;100.00;101202.06;5080952;28;20029;-82
2022/09/25 06:33:18;;;;;;;33.15;10.38;;;;;;;9.51;100.00;101207.22;5057634;28;20033;-81
2022/09/25 06:35:51;;;;;;;26.77;10.60;;;;;;;9.66;100.00;101218.94;5032122;28;20025;-82
2022/09/25 06:38:25;;;;;;;29.67;10.27;;;;;;;9.78;100.00;101219.94;5049608;28;20036;-81
2022/09/25 06:40:58;;;;;;;19.25;9.77;;;;;;;9.86;100.00;101213.94;5075944;28;20129;-81
2022/09/25 06:43:26;;;;;;;22.83;10.38;;;;;;;9.98;100.00;101207.59;5056026;28;20037;-83
2022/09/25 06:46:06;;;;;;;34.72;11.18;;;;;;;10.19;100.00;101215.25;5058111;28;20029;-82
2022/09/25 06:48:33;;;;;;;33.60;10.15;;;;;;;9.96;100.00;101212.28;5039437;28;20037;-79
2022/09/25 06:51:10;;;;;;;30.08;10.60;;;;;;;10.38;100.00;101223.03;5068371;28;20476;-82
2022/09/25 06:53:46;;;;;;;23.92;9.10;;;;;;;10.36;100.00;101214.94;5047904;28;20028;-82
2022/09/25 06:56:21;;;;;;;21.77;8.95;;;;;;;10.29;100.00;101210.88;5075580;28;20033;-81
2022/09/25 06:58:57;;;;;;;28.10;9.80;;;;;;;10.44;100.00;101220.72;5078475;28;20073;-81
2022/09/25 07:01:25;;;;;;;23.92;10.60;;;;;;;10.53;100.00;101232.03;5069300;28;20032;-80
2022/09/25 07:03:58;;;;;;;22.67;9.85;;;;;;;10.55;100.00;101224.56;5029652;28;20032;-81
2022/09/25 07:06:36;;;;;;;29.38;9.77;;;;;;;10.65;100.00;101228.38;5065529;28;20039;-81
2022/09/25 07:09:02;;;;;;;23.77;10.02;;;;;;;10.69;100.00;101232.63;5061726;28;20056;-79
2022/09/25 07:11:35;;;;;;;22.88;9.65;;;;;;;10.72;100.00;101221.44;5072804;28;20028;-80
2022/09/25 07:14:15;;;;;;;24.95;9.45;;;;;;;10.85;100.00;101230.50;5047158;28;20479;-81
2022/09/25 07:16:41;;;;;;;22.73;9.73;;;;;;;10.90;100.00;101234.75;5061498;28;20028;-81
2022/09/25 07:19:19;;;;;;;36.78;9.23;;;;;;;11.15;100.00;101237.41;5063584;28;20036;-82
2022/09/25 07:21:53;;;;;;;28.07;10.33;;;;;;;11.04;100.00;101231.88;5048216;28;20041;-81
2022/09/25 07:24:31;;;;;;;18.35;10.05;;;;;;;11.13;100.00;101239.38;5046934;28;20063;-83
2022/09/25 07:27:03;;;;;;;28.50;10.88;;;;;;;11.14;100.00;101240.28;5035695;28;20037;-83
2022/09/25 07:29:34;;;;;;;20.85;10.15;;;;;;;11.35;100.00;101243.25;5044891;28;20044;-82
2022/09/25 07:32:01;;;;;;;26.67;9.73;;;;;;;11.28;100.00;101241.97;5046653;28;20025;-82
2022/09/25 07:34:26;;;;;;;19.73;9.02;;;;;;;11.55;100.00;101233.50;5055975;28;20037;-82
2022/09/25 07:37:02;;;;;;;19.25;7.93;;;;;;;11.65;100.00;101237.25;5047131;28;20056;-85
2022/09/25 07:39:33;;;;;;;22.52;7.65;;;;;;;11.67;100.00;101248.13;5058269;28;20036;-84
2022/09/25 07:42:07;;;;;;;18.65;7.68;;;;;;;11.80;100.00;101243.41;5030244;28;20041;-81
2022/09/25 07:44:52;;;;;;;15.60;6.47;;;;;;;11.98;100.00;101249.38;5032919;28;20039;-83
2022/09/25 07:47:19;;;;;;;19.80;6.70;;;;;;;12.10;100.00;101255.75;5044015;28;20540;-81
2022/09/25 07:49:57;;;;;;;20.13;5.63;;;;;;;12.28;100.00;101248.81;5037301;28;20063;-81
2022/09/25 07:52:33;;;;;;;17.83;5.30;;;;;;;12.49;100.00;101248.06;5049662;28;20059;-83
2022/09/25 07:54:59;;;;;;;15.95;5.85;;;;;;;12.61;100.00;101249.84;5070375;28;20032;-82
2022/09/25 07:57:35;;;;;;;15.32;5.25;;;;;;;12.93;100.00;101245.44;5045844;28;20387;-83
2022/09/25 08:00:06;;;;;;;17.05;4.93;;;;;;;13.40;100.00;101252.47;5045524;28;20040;-84
2022/09/25 08:02:37;;;;;;;17.05;4.72;;;;;;;13.48;100.00;101256.44;5059705;28;20029;-84
2022/09/25 08:05:10;;;;;;;19.90;4.90;;;;;;;13.91;100.00;101256.38;5080326;28;20039;-84
2022/09/25 08:07:41;;;;;;;9.18;3.38;;;;;;;14.08;100.00;101254.88;5079236;28;20035;-84
2022/09/25 08:10:13;;;;;;;18.92;3.67;;;;;;;14.24;100.00;101264.56;5019538;28;20044;-83
2022/09/25 08:12:39;;;;;;;15.85;3.85;;;;;;;14.61;100.00;101264.06;5029398;28;20033;-82
2022/09/25 08:15:06;;;;;;;13.43;3.70;;;;;;;14.58;100.00;101258.81;5033171;28;20047;-82
2022/09/25 08:17:44;;;;;;;15.32;4.25;;;;;;;15.06;100.00;101258.16;5029192;28;20047;-80
2022/09/25 08:20:12;;;;;;;27.20;3.67;;;;;;;14.96;100.00;101251.75;5029856;28;20078;-81
2022/09/25 08:22:42;;;;;;;10.95;3.08;;;;;;;15.03;100.00;101253.78;5079239;28;20032;-81
2022/09/25 08:25:09;;;;;;;13.82;3.38;;;;;;;15.10;100.00;101251.31;5061141;28;20139;-81
2022/09/25 08:27:43;;;;;;;8.43;2.97;;;;;;;15.23;100.00;101249.22;5046210;28;20429;-81
2022/09/25 08:30:24;;;;;;;15.73;3.20;;;;;;;15.74;100.00;101246.31;5049132;28;20031;-81
2022/09/25 08:32:51;;;;;;;16.23;2.70;;;;;;;16.02;100.00;101249.25;5062573;28;20028;-83
2022/09/25 08:35:18;;;;;;;23.60;3.25;;;;;;;15.86;100.00;101250.72;5056692;28;20481;-83
2022/09/25 08:37:45;;;;;;;15.93;3.53;;;;;;;16.37;100.00;101239.44;5029108;28;20088;-83
2022/09/25 08:40:25;;;;;;;13.68;3.20;;;;;;;16.25;100.00;101247.91;5079578;28;20118;-82
2022/09/25 08:43:02;;;;;;;17.70;2.92;;;;;;;16.76;100.00;101254.00;5059282;28;20047;-82
2022/09/25 08:49:01;;;;;;;10.18;2.17;;;;;;;16.59;100.00;101244.59;5069089;28;20429;-81
2022/09/25 08:51:45;;;;;;;13.88;2.55;;;;;;;16.42;100.00;101243.47;5040725;28;20025;-81
2022/09/25 08:54:21;;;;;;;14.57;3.05;;;;;;;16.67;100.00;101239.16;5067598;28;20104;-81
2022/09/25 08:56:52;;;;;;;14.93;3.10;;;;;;;16.85;100.00;101230.09;5055798;28;20033;-81
2022/09/25 08:59:38;;;;;;;15.82;2.75;;;;;;;17.15;100.00;101237.22;5040117;28;20474;-81
2022/09/25 09:02:23;;;;;;;16.75;2.58;;;;;;;17.13;100.00;101235.63;5070996;28;20052;-81
2022/09/25 09:04:59;;;;;;;15.73;2.20;;;;;;;17.67;100.00;101239.31;5079080;28;20483;-81
2022/09/25 09:07:43;;;;;;;11.95;2.10;;;;;;;17.77;100.00;101240.13;5049365;28;20032;-81
2022/09/25 09:10:39;;;;;;;16.48;2.05;;;;;;;17.25;100.00;101246.34;5060320;28;20396;-80
2022/09/25 09:13:22;;;;;;;10.25;1.13;;;;;;;18.13;100.00;101237.28;5050664;28;20545;-80
2022/09/25 09:16:06;;;;;;;7.30;1.10;;;;;;;16.89;100.00;101235.19;5074981;28;20025;-80
2022/09/25 09:18:38;;;;;;;9.18;1.23;;;;;;;17.04;100.00;101232.75;5071468;28;20091;-79
2022/09/25 09:21:37;;;;;;;13.65;2.03;;;;;;;17.37;100.00;101226.72;5053887;28;20072;-78
2022/09/25 09:24:16;;;;;;;10.10;1.67;;;;;;;17.80;100.00;101228.69;5050747;28;20506;-80
2022/09/25 09:27:26;;;;;;;12.57;1.48;;;;;;;18.45;100.00;101227.47;5054669;28;20467;-79
2022/09/25 09:30:50;;;;;;;10.40;1.20;;;;;;;18.66;100.00;101228.97;5064460;28;20024;-80
2022/09/25 09:33:55;;;;;;;13.50;1.70;;;;;;;18.66;100.00;101234.50;5002421;28;20119;-79
2022/09/25 09:37:14;;;;;;;5.28;1.40;;;;;;;18.60;100.00;101232.41;5075581;28;20029;-81
2022/09/25 09:40:18;;;;;;;11.15;1.27;;;;;;;18.53;100.00;101230.31;4967955;28;20526;-80
2022/09/25 09:42:58;;;;;;;;;;;;;;;19.17;100.00;101229.91;5064929;28;20032;-80
2022/09/25 09:45:33;;;;;;;6.90;1.20;;;;;;;16.95;100.00;101225.38;5085001;28;19912;-79
2022/09/25 09:48:02;;;;;;;12.27;1.42;;;;;;;16.65;100.00;101230.16;5055314;28;20033;-79
2022/09/25 09:50:52;;;;;;;8.32;1.02;;;;;;;17.38;100.00;101223.81;5072507;28;20040;-79
2022/09/25 09:53:39;;;;;;;9.73;1.23;;;;;;;18.25;100.00;101225.94;5059244;28;20036;-80
2022/09/25 09:56:21;;;;;;;4.40;0.82;;;;;;;18.26;100.00;101225.78;5069724;28;20024;-81
2022/09/25 09:58:54;;;;;;;7.47;1.10;;;;;;;17.39;100.00;101225.53;5078437;28;20059;-80
2022/09/25 10:01:27;;;;;;;9.63;1.20;;;;;;;17.47;100.00;101226.66;5044851;28;20056;-80
2022/09/25 10:04:26;;;;;;;10.10;1.20;;;;;;;17.95;100.00;101225.38;5065494;28;20084;-80
2022/09/25 10:07:05;;;;;;;1.42;0.60;;;;;;;17.66;100.00;101220.06;5068642;28;20560;-80
2022/09/25 10:09:48;;;;;;;5.45;0.90;;;;;;;18.17;100.00;101212.94;5061585;28;20065;-80
2022/09/25 10:12:32;;;;;;;11.38;0.80;;;;;;;18.37;100.00;101216.34;5075900;28;20036;-80
2022/09/25 10:15:04;;;;;;;11.23;1.30;;;;;;;18.31;100.00;101209.53;5057314;28;20020;-80
2022/09/25 10:17:45;;;;;;;5.53;0.70;;;;;;;19.26;100.00;101214.16;5053475;28;20025;-80
2022/09/25 10:20:52;;;;;;;5.63;0.80;;;;;;;18.22;100.00;101206.88;5080215;28;20024;-80
2022/09/25 10:23:47;;;;;;;7.70;0.75;;;;;;;18.47;100.00;101211.53;5044411;28;20067;-80
2022/09/25 10:26:37;;;;;;;11.77;0.80;;;;;;;18.94;100.00;101206.59;5061311;28;20040;-79
2022/09/25 10:29:26;;;;;;;7.97;0.70;;;;;;;17.96;100.00;101199.44;5041565;28;20032;-79
2022/09/25 10:32:02;;;;;;;7.18;0.77;;;;;;;16.99;100.00;101198.31;5051465;28;20028;-80
2022/09/25 10:34:30;;;;;;;5.82;0.80;;;;;;;16.79;100.00;101197.50;5073245;28;20102;-80
2022/09/25 10:37:19;;;;;;;13.23;1.20;;;;;;;16.81;100.00;101195.47;5079313;28;20043;-80
2022/09/25 10:40:05;;;;;;;3.53;0.80;;;;;;;17.49;100.00;101194.16;5062093;28;20391;-79
2022/09/25 10:42:38;;;;;;;4.10;1.05;;;;;;;18.05;100.00;101192.91;5061821;28;20125;-80
2022/09/25 10:45:28;;;;;;;2.08;0.60;;;;;;;18.10;100.00;101195.19;5075822;28;20077;-79
2022/09/25 10:51:25;;;;;;;6.20;0.70;;;;;;;17.98;100.00;101198.22;5067112;28;20029;-79
2022/09/25 10:54:09;;;;;;;3.97;0.73;;;;;;;18.12;100.00;101205.09;5058943;28;20044;-80
2022/09/25 10:56:38;;;;;;;3.67;0.60;;;;;;;18.27;100.00;101194.28;5058742;28;20033;-81
2022/09/25 10:59:15;;;;;;;3.25;0.70;;;;;;;18.10;100.00;101198.84;5041347;28;20033;-79
2022/09/25 11:01:42;;;;;;;3.15;0.90;;;;;;;18.43;100.00;101195.38;5068027;28;20035;-79
2022/09/25 11:04:20;;;;;;;5.20;0.73;;;;;;;18.55;100.00;101206.03;5058296;28;20037;-80
2022/09/25 11:06:53;;;;;;;6.03;0.82;;;;;;;17.92;100.00;101198.00;5043307;28;71816;-81
2022/09/25 11:10:28;;;;;;;2.78;0.60;;;;;;;16.85;100.00;101199.69;5015279;27;20406;-82
2022/09/25 11:12:55;;;;;;;5.63;0.70;;;;;;;16.71;100.00;101193.59;5071649;28;20075;-80
2022/09/25 11:15:24;;;;;;;2.75;0.50;;;;;;;16.42;100.00;101202.03;5083519;28;20518;-80
2022/09/25 11:17:52;;;;;;;3.47;0.70;;;;;;;16.41;100.00;101199.41;5094510;28;20028;-81
2022/09/25 11:20:18;;;;;;;3.90;0.90;;;;;;;16.07;100.00;101197.19;5094317;28;20067;-81
2022/09/25 11:22:48;;;;;;;4.78;0.68;;;;;;;16.28;100.00;101191.44;5086148;28;20037;-81
2022/09/25 11:25:33;;;;;;;8.60;1.20;;;;;;;16.94;100.00;101187.69;5069119;28;20046;-82
2022/09/25 11:28:11;;;;;;;2.65;0.50;;;;;;;17.39;100.00;101175.69;5086331;28;20056;-81
2022/09/25 11:30:45;;;;;;;2.42;0.57;;;;;;;17.54;100.00;101189.00;5094285;28;20036;-81
2022/09/25 11:33:22;;;;;;;9.23;0.80;;;;;;;17.18;100.00;101180.69;5060890;28;20032;-81
2022/09/25 11:35:55;;;;;;;3.28;0.60;;;;;;;17.03;100.00;101180.34;5090646;28;20078;-81
2022/09/25 11:41:35;;;;;;;4.47;0.80;;;;;;;16.79;100.00;101180.91;5093264;28;20028;-79
2022/09/25 11:44:22;;;;;;;6.47;0.70;;;;;;;17.26;100.00;101176.09;5058276;28;20396;-81
2022/09/25 11:47:03;;;;;;;5.60;0.80;;;;;;;17.20;100.00;101167.56;5082483;28;20040;-80
2022/09/25 11:49:38;;;;;;;3.38;0.93;;;;;;;17.24;100.00;101167.09;5077841;28;20054;-81
2022/09/25 11:52:24;;;;;;;3.17;0.40;;;;;;;17.19;100.00;101172.22;5078355;28;20693;-81
2022/09/25 11:55:11;;;;;;;1.77;0.50;;;;;;;17.46;100.00;101175.94;5090013;28;20040;-81
2022/09/25 11:58:02;;;;;;;5.45;0.70;;;;;;;17.44;100.00;101167.78;5075613;28;20028;-81
2022/09/25 12:00:53;;;;;;;2.00;0.50;;;;;;;17.56;100.00;101162.91;5091515;28;20116;-82
2022/09/25 12:03:36;;;;;;;3.42;0.73;;;;;;;17.51;100.00;101161.63;5094991;28;20035;-81
2022/09/25 12:06:20;;;;;;;3.65;0.57;;;;;;;17.80;100.00;101155.81;5073294;28;20135;-82
2022/09/25 12:08:52;;;;;;;7.35;0.82;;;;;;;17.59;100.00;101162.59;5074295;28;20472;-82
2022/09/25 12:11:36;;;;;;;1.30;0.70;;;;;;;17.55;100.00;101147.31;5094312;28;20032;-82
2022/09/25 12:14:26;;;;;;;2.17;0.50;;;;;;;17.97;100.00;101146.63;5093821;28;20036;-81